Friday, November 17, 2017, 2:28 PM EST
Back to Local

KBLM, Belmar-farmingdale

Location: Farmingdale, NJ, United States Lat: 40.183
Local Time: 2:28 PM EST (19:28 GMT) Lon: -74.133
Time Zone: US/Eastern Elev: 157 ft

Show me the last for .
Show Coded

Time T Td Feel RH Dir Speed Gust Alt SLP Vis Weather Sky Remarks
2017-11-17 13:56 48 22 40 35 280° 21 26 30.08 30.09 10 CLR None
2017-11-17 12:56 48 22 40 35 280° 16 24 30.08 30.10 10 CLR 6-hr Min Temp (1pm): 39.9°F
6-hr Max Temp (1pm): 48.0°F
2017-11-17 11:56 46 23 38 39 280° 17 24 30.08 30.09 10 CLR None
2017-11-17 10:56 44 25 35 46 280° 16 24 30.10 30.11 10 CLR None
2017-11-17 09:56 43 26 34 50 300° 20 24 30.11 30.13 10 CLR None
2017-11-17 08:56 42 25 32 50 300° 20 28 30.10 30.11 10 CLR None
2017-11-17 07:56 41 25 31 52 290° 18 23 30.07 30.09 10 CLR None
2017-11-17 06:56 40 26 30 57 300° 14 21 30.05 30.06 10 CLR 6-hr Min Temp (7am): 39.9°F
6-hr Max Temp (7am): 42.1°F
2017-11-17 05:56 41 29 34 61 300° 13 - 30.03 30.05 10 OVC042 None
2017-11-17 04:56 42 30 35 62 300° 13 - 30.02 30.03 10 OVC036 None
2017-11-17 03:56 42 31 36 64 290° 12 - 29.99 30.01 10 SCT035 OVC046 None
2017-11-17 02:56 41 32 34 70 280° 12 - - - 10 FEW055 None
2017-11-17 01:56 41 31 35 67 270° 10 - 29.96 29.98 10 CLR None
2017-11-17 00:56 42 31 36 64 270° 10 - 29.95 29.96 10 CLR 6-hr Min Temp (1am): 42.1°F
6-hr Max Temp (1am): 48.0°F
2017-11-16 23:56 43 31 34 62 260° 14 22 29.94 29.96 10 CLR 24-hr Min Temp (12am): 43.0°F
24-hr Max Temp (12am): 57.9°F
2017-11-16 22:56 44 31 35 59 280° 16 23 29.93 29.94 10 CLR None
2017-11-16 20:56 45 31 37 57 270° 14 22 29.92 29.93 10 CLR None
2017-11-16 19:56 47 31 39 53 280° 17 23 29.90 29.92 10 CLR Peak wind: 31 mph (27 kts) from 290° at 27 min
2017-11-16 18:56 48 32 39 53 290° 24 31 29.88 29.90 10 CLR Peak wind: 31 mph (27 kts) from 280° at 54 min
6-hr Min Temp (7pm): 48.0°F
6-hr Max Temp (7pm): 57.9°F
2017-11-16 17:56 48 32 42 53 280° 16 - - - 10 CLR None
2017-11-16 16:56 49 33 41 54 280° 15 26 29.85 29.87 10 CLR Peak wind: 32 mph (28 kts) from 290° at 21 min
2017-11-16 15:56 53 37 - 54 300° 25 36 29.82 29.83 10 FEW080 Peak wind: 35 mph (31 kts) from 280° at 56 min
1-hr Precip Total: Trace
2017-11-16 14:56 57 35 - 43 290° 24 36 29.79 29.80 10 CLR Peak wind: 35 mph (31 kts) from 270° at 50 min

Support USWX by starting your Amazon purchase here.